FTA weather

Felipe Terrones Acosta Airport
Tierra Blanca, Veracruz, Mexico

Public forecast

Using degrees Celsius for public forecast. Weather courtesy of forecast.io.

Closest aviation weather report (METAR) to Felipe Terrones Acosta Airport

Closest report is General Heriberto Jara International Airport, 40.6 nm (75.2 km) NNE. Retrieved 2020/04/08 20:53 UTC (1 hour ago):

MMVR 082053Z 07008KT 5SM OVC250 32/24 A2982 RMK SLP079 57031 974 8/007 HZY

Closest aviation forecast (TAF) to Felipe Terrones Acosta Airport

Closest forecast is General Heriberto Jara International Airport, 40.6 nm (75.2 km) NNE. Retrieved 2020/04/08 18:47 UTC (3 hours ago):

TAF MMVR 081640Z 0818/0918 06010KT 5SM HZ SCT015 SCT230 TX34/0821Z TN25/0912Z BECMG 0901/0902 00000KT FM091000 00000KT 3SM BR OVC010 FM091500 00000KT 4SM HZ SCT015